createdAt,value
2018-08-19T00:02:18.409Z,22.31
2018-08-19T00:05:02.392Z,22.59
2018-08-19T00:07:31.586Z,22.75
2018-08-19T00:10:00.806Z,22.88
2018-08-19T00:12:37.028Z,23.40
2018-08-19T00:15:07.262Z,23.12
2018-08-19T00:17:36.616Z,22.99
2018-08-19T00:20:07.663Z,23.20
2018-08-19T00:22:36.824Z,22.54
2018-08-19T00:25:06.573Z,22.43
2018-08-19T00:27:38.239Z,22.57
2018-08-19T00:30:09.364Z,22.54
2018-08-19T00:32:38.551Z,22.87
2018-08-19T00:35:07.792Z,23.09
2018-08-19T00:37:37.027Z,23.38
2018-08-19T00:40:10.231Z,23.14
2018-08-19T00:42:39.514Z,23.10
2018-08-19T00:45:08.852Z,22.80
2018-08-19T00:47:38.101Z,23.37
2018-08-19T00:50:07.320Z,23.15
2018-08-19T00:52:37.141Z,22.83
2018-08-19T00:55:06.318Z,22.99
2018-08-19T00:57:35.961Z,22.59
2018-08-19T01:00:05.504Z,22.85
2018-08-19T01:02:34.734Z,22.92
2018-08-19T01:05:04.096Z,22.76
2018-08-19T01:07:35.265Z,22.26
2018-08-19T01:10:04.596Z,22.63
2018-08-19T01:12:33.779Z,22.64
2018-08-19T01:15:02.998Z,22.65
2018-08-19T01:17:37.222Z,22.15
2018-08-19T01:20:08.945Z,22.27
2018-08-19T01:22:42.409Z,22.45
2018-08-19T01:25:13.593Z,22.35
2018-08-19T01:27:42.816Z,22.43
2018-08-19T01:30:15.908Z,22.06
2018-08-19T01:32:45.202Z,22.18
2018-08-19T01:35:14.452Z,22.49
2018-08-19T01:37:43.733Z,22.44
2018-08-19T01:40:16.770Z,21.96
2018-08-19T01:42:46.516Z,21.49
2018-08-19T01:45:15.873Z,22.08
2018-08-19T01:47:45.024Z,22.24
2018-08-19T01:50:15.914Z,22.37
2018-08-19T01:52:45.838Z,21.94
2018-08-19T01:55:15.030Z,22.16
2018-08-19T01:57:47.363Z,21.97
2018-08-19T02:00:17.329Z,21.95
2018-08-19T02:02:57.929Z,21.59
2018-08-19T02:05:27.448Z,21.75
2018-08-19T02:07:58.768Z,22.03
2018-08-19T02:10:28.987Z,21.47
2018-08-19T02:12:58.814Z,21.34
2018-08-19T02:15:29.277Z,21.50
2018-08-19T02:18:00.379Z,21.35
2018-08-19T02:20:41.644Z,21.30
2018-08-19T02:23:12.082Z,21.17
2018-08-19T02:25:46.172Z,21.42
2018-08-19T02:28:19.846Z,21.57
2018-08-19T02:30:54.444Z,21.48
2018-08-19T02:33:24.447Z,20.98
2018-08-19T02:35:57.761Z,21.55
2018-08-19T02:38:26.938Z,21.92
2018-08-19T02:40:56.234Z,22.00
2018-08-19T02:43:25.405Z,21.58
2018-08-19T02:45:54.589Z,21.26
2018-08-19T02:48:44.884Z,21.18
2018-08-19T02:51:21.083Z,21.21
2018-08-19T02:53:51.290Z,21.59
2018-08-19T02:56:21.005Z,21.66
2018-08-19T02:58:50.160Z,21.24
2018-08-19T03:01:19.388Z,21.36
2018-08-19T03:03:48.529Z,20.97
2018-08-19T03:06:17.723Z,21.17
2018-08-19T03:08:51.973Z,21.34
2018-08-19T03:11:22.305Z,21.24
2018-08-19T03:13:51.465Z,21.41
2018-08-19T03:16:20.603Z,21.03
2018-08-19T03:18:51.315Z,20.98
2018-08-19T03:21:21.126Z,21.18
2018-08-19T03:23:52.935Z,21.14
2018-08-19T03:26:22.094Z,21.29
2018-08-19T03:28:51.217Z,21.23
2018-08-19T03:31:20.372Z,21.28
2018-08-19T03:33:49.481Z,21.52
2018-08-19T03:36:18.658Z,21.66
2018-08-19T03:38:47.841Z,21.65
2018-08-19T03:41:17.046Z,21.44
2018-08-19T03:43:55.065Z,21.35
2018-08-19T03:46:24.277Z,21.13
2018-08-19T03:48:53.414Z,21.52
2018-08-19T03:51:22.591Z,21.34
2018-08-19T03:53:51.703Z,21.10
2018-08-19T03:56:26.690Z,21.01
2018-08-19T03:59:00.133Z,21.07
2018-08-19T04:01:43.090Z,21.07
2018-08-19T04:04:14.578Z,21.03
2018-08-19T04:06:44.075Z,21.10
2018-08-19T04:09:13.273Z,21.23
2018-08-19T04:11:42.540Z,21.43
2018-08-19T04:14:28.963Z,21.35
2018-08-19T04:17:00.180Z,20.62
2018-08-19T04:19:29.699Z,21.01
2018-08-19T04:22:01.449Z,21.18
2018-08-19T04:24:31.197Z,21.03
2018-08-19T04:27:04.300Z,21.32
2018-08-19T04:29:34.538Z,20.95
2018-08-19T04:32:04.663Z,20.61
2018-08-19T04:34:33.963Z,20.64
2018-08-19T04:37:03.226Z,20.53
2018-08-19T04:39:32.462Z,20.64
2018-08-19T04:42:01.740Z,20.58
2018-08-19T04:44:31.022Z,20.88
2018-08-19T04:47:00.414Z,19.94
2018-08-19T04:49:30.039Z,20.20
2018-08-19T04:51:59.488Z,20.33
2018-08-19T04:54:28.888Z,20.41
2018-08-19T04:56:58.167Z,20.16
2018-08-19T04:59:27.534Z,20.33
2018-08-19T05:01:56.750Z,20.72
2018-08-19T05:04:26.140Z,20.65
2018-08-19T05:06:55.446Z,20.54
2018-08-19T05:09:24.760Z,19.82
2018-08-19T05:11:54.081Z,20.29
2018-08-19T05:14:23.406Z,20.65
2018-08-19T05:16:52.740Z,20.99
2018-08-19T05:19:21.980Z,21.23
2018-08-19T05:21:51.603Z,20.91
2018-08-19T05:24:20.890Z,21.49
2018-08-19T05:26:53.957Z,20.99
2018-08-19T05:29:23.274Z,21.32
2018-08-19T05:31:59.008Z,21.58
2018-08-19T05:34:36.364Z,21.90
2018-08-19T05:37:05.693Z,21.82
2018-08-19T05:39:35.069Z,21.76
2018-08-19T05:42:12.543Z,21.87
2018-08-19T05:44:42.478Z,21.78
2018-08-19T05:47:16.727Z,22.01
2018-08-19T05:49:47.190Z,22.49
2018-08-19T05:52:18.546Z,22.00
2018-08-19T05:54:52.907Z,21.92
2018-08-19T05:57:22.274Z,22.11
2018-08-19T05:59:52.651Z,22.22
2018-08-19T06:02:33.741Z,22.41
2018-08-19T06:05:04.188Z,22.07
2018-08-19T06:07:33.391Z,21.96
2018-08-19T06:10:02.744Z,22.14
2018-08-19T06:12:32.119Z,22.06
2018-08-19T06:15:02.431Z,22.87
2018-08-19T06:17:31.652Z,23.58
2018-08-19T06:20:00.977Z,23.48
2018-08-19T06:22:39.003Z,23.14
2018-08-19T06:25:08.530Z,22.93
2018-08-19T06:27:52.140Z,23.07
2018-08-19T06:30:21.388Z,22.31
2018-08-19T06:32:50.587Z,23.26
2018-08-19T06:35:19.872Z,23.58
2018-08-19T06:37:49.015Z,22.93
2018-08-19T06:40:19.477Z,23.55
2018-08-19T06:42:54.820Z,23.90
2018-08-19T06:45:24.106Z,23.93
2018-08-19T06:48:12.973Z,24.11
2018-08-19T06:50:42.270Z,23.55
2018-08-19T06:53:15.602Z,24.24
2018-08-19T06:55:44.947Z,24.91
2018-08-19T06:58:14.273Z,24.80
2018-08-19T07:00:43.743Z,24.72
2018-08-19T07:03:12.980Z,24.17
2018-08-19T07:05:42.222Z,25.09
2018-08-19T07:08:11.481Z,24.81
2018-08-19T07:10:42.229Z,25.76
2018-08-19T07:13:13.145Z,26.16
2018-08-19T07:15:43.629Z,26.04
2018-08-19T07:18:15.767Z,25.71
2018-08-19T07:20:45.596Z,25.88
2018-08-19T07:23:15.687Z,26.65
2018-08-19T07:25:46.338Z,25.67
2018-08-19T07:28:17.397Z,25.53
2018-08-19T07:30:46.939Z,26.08
2018-08-19T07:33:17.222Z,25.54
2018-08-19T07:35:46.838Z,25.71
2018-08-19T07:38:16.425Z,26.56
2018-08-19T07:40:45.975Z,26.36
2018-08-19T07:43:16.103Z,26.44
2018-08-19T07:45:46.326Z,26.61
2018-08-19T07:48:15.981Z,26.69
2018-08-19T07:50:45.937Z,26.69
2018-08-19T07:53:15.582Z,27.11
2018-08-19T07:55:45.326Z,26.72
2018-08-19T07:58:15.483Z,27.58
2018-08-19T08:00:44.693Z,27.33
2018-08-19T08:03:13.922Z,27.78
2018-08-19T08:05:48.342Z,28.19
2018-08-19T08:08:17.686Z,28.31
2018-08-19T08:10:47.060Z,28.30
2018-08-19T08:13:16.461Z,28.28
2018-08-19T08:15:51.074Z,27.96
2018-08-19T08:18:20.336Z,27.24
2018-08-19T08:20:49.808Z,27.41
2018-08-19T08:23:25.292Z,27.77
2018-08-19T08:25:55.069Z,28.25
2018-08-19T08:28:24.739Z,27.10
2018-08-19T08:30:54.377Z,27.43
2018-08-19T08:33:24.085Z,28.35
2018-08-19T08:35:56.159Z,28.29
2018-08-19T08:38:25.455Z,27.50
2018-08-19T08:40:56.025Z,27.49
2018-08-19T08:43:25.288Z,27.62
2018-08-19T08:45:57.090Z,27.69
2018-08-19T08:48:28.082Z,27.62
2018-08-19T08:50:57.761Z,28.56
2018-08-19T08:53:28.902Z,29.07
2018-08-19T08:55:58.564Z,28.23
2018-08-19T08:58:27.921Z,27.88
2018-08-19T09:00:57.805Z,27.98
2018-08-19T09:03:27.179Z,28.57
2018-08-19T09:05:56.655Z,29.21
2018-08-19T09:08:25.956Z,27.78
2018-08-19T09:10:55.402Z,27.48
2018-08-19T09:13:24.725Z,27.81
2018-08-19T09:15:54.443Z,28.59
2018-08-19T09:18:23.785Z,28.99
2018-08-19T09:20:53.116Z,28.52
2018-08-19T09:23:22.459Z,28.39
2018-08-19T09:25:51.672Z,29.74
2018-08-19T09:28:21.061Z,29.87
2018-08-19T09:30:50.394Z,29.28
2018-08-19T09:33:19.582Z,29.03
2018-08-19T09:35:49.100Z,28.80
2018-08-19T09:38:20.637Z,29.56
2018-08-19T09:40:50.058Z,29.48
2018-08-19T09:43:19.622Z,28.51
2018-08-19T09:45:49.430Z,29.08
2018-08-19T09:48:18.950Z,29.73
2018-08-19T09:50:48.255Z,29.91
2018-08-19T09:53:17.555Z,28.99
2018-08-19T09:56:19.479Z,29.33
2018-08-19T09:58:52.673Z,29.41
2018-08-19T10:01:45.377Z,29.32
2018-08-19T10:04:18.869Z,29.63
2018-08-19T10:06:50.688Z,29.72
2018-08-19T10:09:20.021Z,29.15
2018-08-19T10:11:49.320Z,29.57
2018-08-19T10:14:18.634Z,29.29
2018-08-19T10:16:48.343Z,30.78
2018-08-19T10:19:17.565Z,30.14
2018-08-19T10:21:46.880Z,30.11
2018-08-19T10:24:26.304Z,29.98
2018-08-19T10:26:55.969Z,29.89
2018-08-19T10:29:25.551Z,30.71
2018-08-19T10:32:14.096Z,31.21
2018-08-19T10:34:48.535Z,30.66
2018-08-19T10:37:19.274Z,29.86
2018-08-19T10:39:48.607Z,30.33
2018-08-19T10:42:23.799Z,30.74
2018-08-19T10:44:53.684Z,31.23
2018-08-19T10:47:22.899Z,29.78
2018-08-19T10:50:00.067Z,30.15
2018-08-19T10:52:30.873Z,31.25
2018-08-19T10:55:01.388Z,32.20
2018-08-19T10:57:30.894Z,31.83
2018-08-19T11:00:00.576Z,32.44
2018-08-19T11:02:29.918Z,31.22
2018-08-19T11:05:00.432Z,30.12
2018-08-19T11:07:30.623Z,31.84
2018-08-19T11:10:17.957Z,32.02
2018-08-19T11:12:49.126Z,32.08
2018-08-19T11:15:30.295Z,32.21
2018-08-19T11:18:13.695Z,31.96
2018-08-19T11:20:42.985Z,31.45
2018-08-19T11:23:16.337Z,32.32
2018-08-19T11:25:45.578Z,31.72
2018-08-19T11:28:41.915Z,31.89
2018-08-19T11:31:20.310Z,31.11
2018-08-19T11:33:50.062Z,30.77
2018-08-19T11:36:19.548Z,30.95
2018-08-19T11:38:52.522Z,31.86
2018-08-19T11:41:22.040Z,31.92
2018-08-19T11:43:51.811Z,32.37
2018-08-19T11:46:21.087Z,30.42
2018-08-19T11:48:57.309Z,30.66
2018-08-19T11:51:48.120Z,30.61
2018-08-19T11:54:18.456Z,31.71
2018-08-19T11:57:07.220Z,33.05
2018-08-19T11:59:38.411Z,33.83
2018-08-19T12:02:10.419Z,34.52
2018-08-19T12:04:39.798Z,33.46
2018-08-19T12:07:09.137Z,32.97
2018-08-19T12:09:39.310Z,32.55
2018-08-19T12:12:08.684Z,33.11
2018-08-19T12:14:38.237Z,34.55
2018-08-19T12:17:09.107Z,34.56
2018-08-19T12:19:41.335Z,34.97
2018-08-19T12:22:11.301Z,34.21
2018-08-19T12:24:42.800Z,33.98
2018-08-19T12:27:13.167Z,34.88
2018-08-19T12:29:43.406Z,34.86
2018-08-19T12:32:24.403Z,34.51
2018-08-19T12:35:01.606Z,33.75
2018-08-19T12:37:33.004Z,34.36
2018-08-19T12:40:02.444Z,35.51
2018-08-19T12:42:32.620Z,34.91
2018-08-19T12:45:06.739Z,34.55
2018-08-19T12:47:36.734Z,34.96
2018-08-19T12:50:13.489Z,34.89
2018-08-19T12:52:42.826Z,35.45
2018-08-19T12:55:14.897Z,34.06
2018-08-19T12:57:44.772Z,34.46
2018-08-19T13:00:19.140Z,35.29
2018-08-19T13:02:50.184Z,35.25
2018-08-19T13:05:19.927Z,34.95
2018-08-19T13:07:49.245Z,34.07
2018-08-19T13:10:18.973Z,34.80
2018-08-19T13:12:52.272Z,35.13
2018-08-19T13:15:21.859Z,35.46
2018-08-19T13:17:51.214Z,36.05
2018-08-19T13:20:20.543Z,36.19
2018-08-19T13:22:54.819Z,36.03
2018-08-19T13:25:25.469Z,35.14
2018-08-19T13:27:54.748Z,35.72
2018-08-19T13:30:24.416Z,36.17
2018-08-19T13:32:53.880Z,35.56
2018-08-19T13:35:23.505Z,35.84
2018-08-19T13:37:53.295Z,36.77
2018-08-19T13:40:22.484Z,36.87
2018-08-19T13:42:51.747Z,36.93
2018-08-19T13:45:22.091Z,37.06
2018-08-19T13:47:53.231Z,36.21
2018-08-19T13:50:22.578Z,36.65
2018-08-19T13:52:51.709Z,36.56
2018-08-19T13:55:21.658Z,35.82
2018-08-19T13:57:51.071Z,35.58
2018-08-19T14:00:22.486Z,35.61
2018-08-19T14:02:52.061Z,35.57
2018-08-19T14:05:21.342Z,36.21
2018-08-19T14:07:50.617Z,37.25
2018-08-19T14:10:19.809Z,36.81
2018-08-19T14:12:48.934Z,37.22
2018-08-19T14:15:18.128Z,37.82
2018-08-19T14:17:47.362Z,37.92
2018-08-19T14:20:16.479Z,37.76
2018-08-19T14:22:45.656Z,36.05
2018-08-19T14:25:15.076Z,35.55
2018-08-19T14:27:44.285Z,37.26
2018-08-19T14:30:13.862Z,37.75
2018-08-19T14:32:45.141Z,36.90
2018-08-19T14:35:14.636Z,36.87
2018-08-19T14:37:44.256Z,37.07
2018-08-19T14:40:17.641Z,37.83
2018-08-19T14:42:47.054Z,37.78
2018-08-19T14:45:16.416Z,37.62
2018-08-19T14:47:45.613Z,37.77
2018-08-19T14:50:18.528Z,37.46
2018-08-19T14:52:47.700Z,37.73
2018-08-19T14:55:17.032Z,37.42
2018-08-19T14:57:46.234Z,37.60
2018-08-19T15:00:17.132Z,38.27
2018-08-19T15:02:46.392Z,37.48
2018-08-19T15:05:19.029Z,37.95
2018-08-19T15:07:49.453Z,37.82
2018-08-19T15:10:20.589Z,37.42
2018-08-19T15:12:49.854Z,37.32
2018-08-19T15:15:19.214Z,36.94
2018-08-19T15:17:53.453Z,37.27
2018-08-19T15:20:27.957Z,37.14
2018-08-19T15:23:09.141Z,37.43
2018-08-19T15:25:38.698Z,37.27
2018-08-19T15:28:07.945Z,37.09
2018-08-19T15:30:39.953Z,37.55
2018-08-19T15:33:09.819Z,37.75
2018-08-19T15:35:39.055Z,37.52
2018-08-19T15:38:08.500Z,37.85
2018-08-19T15:40:44.514Z,37.77
2018-08-19T15:43:14.130Z,36.98
2018-08-19T15:45:44.104Z,37.50
2018-08-19T15:48:13.443Z,37.32
2018-08-19T15:50:42.685Z,37.63
2018-08-19T15:53:11.936Z,37.76
2018-08-19T15:55:41.198Z,37.43
2018-08-19T15:58:10.479Z,36.93
2018-08-19T16:00:41.554Z,37.02
2018-08-19T16:03:12.040Z,36.63
2018-08-19T16:05:41.320Z,36.78
2018-08-19T16:08:10.505Z,36.84
2018-08-19T16:10:39.910Z,36.30
2018-08-19T16:13:10.632Z,35.19
2018-08-19T16:15:39.953Z,35.76
2018-08-19T16:18:09.918Z,35.44
2018-08-19T16:20:39.255Z,35.37
2018-08-19T16:23:08.670Z,35.41
2018-08-19T16:25:37.991Z,35.11
2018-08-19T16:28:07.227Z,35.05
2018-08-19T16:30:36.439Z,34.76
2018-08-19T16:33:05.669Z,34.90
2018-08-19T16:35:34.871Z,34.52
2018-08-19T16:38:04.013Z,34.35
2018-08-19T16:40:33.488Z,34.46
2018-08-19T16:43:02.748Z,33.98
2018-08-19T16:45:31.936Z,33.80
2018-08-19T16:48:01.184Z,33.66
2018-08-19T16:50:30.558Z,33.86
2018-08-19T16:52:59.758Z,33.59
2018-08-19T16:55:28.962Z,33.45
2018-08-19T16:57:58.202Z,33.45
2018-08-19T17:00:27.329Z,33.41
2018-08-19T17:02:56.518Z,33.51
2018-08-19T17:05:31.891Z,33.04
2018-08-19T17:08:01.130Z,33.28
2018-08-19T17:10:30.860Z,32.88
2018-08-19T17:13:00.112Z,33.05
2018-08-19T17:15:29.791Z,33.12
2018-08-19T17:17:59.578Z,32.92
2018-08-19T17:20:28.837Z,32.70
2018-08-19T17:22:58.074Z,32.65
2018-08-19T17:25:27.345Z,32.28
2018-08-19T17:27:56.538Z,32.40
2018-08-19T17:30:25.790Z,32.36
2018-08-19T17:32:58.888Z,32.19
2018-08-19T17:35:28.178Z,32.32
2018-08-19T17:37:57.406Z,32.06
2018-08-19T17:40:26.733Z,32.08
2018-08-19T17:42:55.995Z,31.93
2018-08-19T17:45:25.179Z,32.17
2018-08-19T17:47:54.873Z,32.15
2018-08-19T17:50:26.555Z,31.85
2018-08-19T17:52:58.414Z,31.84
2018-08-19T17:55:27.669Z,31.62
2018-08-19T17:57:58.376Z,31.38
2018-08-19T18:00:27.477Z,31.12
2018-08-19T18:02:56.664Z,31.47
2018-08-19T18:05:25.967Z,31.48
2018-08-19T18:07:56.150Z,31.43
2018-08-19T18:10:25.485Z,31.17
2018-08-19T18:12:54.688Z,31.51
2018-08-19T18:15:23.975Z,31.21
2018-08-19T18:18:01.933Z,30.95
2018-08-19T18:20:36.636Z,31.04
2018-08-19T18:23:14.976Z,31.07
2018-08-19T18:25:47.992Z,31.19
2018-08-19T18:28:24.259Z,31.07
2018-08-19T18:31:04.025Z,31.08
2018-08-19T18:33:33.223Z,30.81
2018-08-19T18:36:02.424Z,30.73
2018-08-19T18:38:34.897Z,30.75
2018-08-19T18:41:04.037Z,30.53
2018-08-19T18:43:33.370Z,30.78
2018-08-19T18:46:02.677Z,30.32
2018-08-19T18:48:31.920Z,30.36
2018-08-19T18:51:01.033Z,30.46
2018-08-19T18:53:30.220Z,30.19
2018-08-19T18:55:59.497Z,30.20
2018-08-19T18:58:28.629Z,30.11
2018-08-19T19:00:59.981Z,29.88
2018-08-19T19:03:29.174Z,30.07
2018-08-19T19:05:58.336Z,29.89
2018-08-19T19:08:27.458Z,30.02
2018-08-19T19:11:01.655Z,29.62
2018-08-19T19:13:30.879Z,29.75
2018-08-19T19:16:00.013Z,29.55
2018-08-19T19:18:29.250Z,29.28
2018-08-19T19:21:03.333Z,29.38
2018-08-19T19:23:34.757Z,29.29
2018-08-19T19:26:05.026Z,29.33
2018-08-19T19:28:34.260Z,29.27
2018-08-19T19:31:08.403Z,29.25
2018-08-19T19:33:37.958Z,29.31
2018-08-19T19:36:22.549Z,29.45
2018-08-19T19:38:58.123Z,29.00
2018-08-19T19:41:32.568Z,29.38
2018-08-19T19:44:16.363Z,29.19
2018-08-19T19:46:45.556Z,29.26
2018-08-19T19:49:14.739Z,29.38
2018-08-19T19:51:47.973Z,29.20
2018-08-19T19:54:17.172Z,29.32
2018-08-19T19:56:46.383Z,29.37
2018-08-19T19:59:15.562Z,29.03
2018-08-19T20:01:44.748Z,28.95
2018-08-19T20:04:13.928Z,29.06
2018-08-19T20:06:43.043Z,29.04
2018-08-19T20:09:12.247Z,28.95
2018-08-19T20:11:41.326Z,28.82
2018-08-19T20:14:10.540Z,28.63
2018-08-19T20:16:39.791Z,28.73
2018-08-19T20:19:09.115Z,28.79
2018-08-19T20:21:38.347Z,28.71
2018-08-19T20:24:07.542Z,28.54
2018-08-19T20:26:36.753Z,28.71
2018-08-19T20:29:06.004Z,28.55
2018-08-19T20:31:35.191Z,28.48
2018-08-19T20:34:04.457Z,28.43
2018-08-19T20:36:33.672Z,28.32
2018-08-19T20:39:06.752Z,28.32
2018-08-19T20:41:36.000Z,28.30
2018-08-19T20:44:07.597Z,28.14
2018-08-19T20:46:40.143Z,28.03
2018-08-19T20:49:09.325Z,27.94
2018-08-19T20:51:38.545Z,28.06
2018-08-19T20:54:07.807Z,27.77
2018-08-19T20:56:36.956Z,27.74
2018-08-19T20:59:06.141Z,27.93
2018-08-19T21:01:35.222Z,27.49
2018-08-19T21:04:04.357Z,27.32
2018-08-19T21:06:33.518Z,27.32
2018-08-19T21:09:02.706Z,27.38
2018-08-19T21:11:31.824Z,27.51
2018-08-19T21:14:01.016Z,27.72
2018-08-19T21:16:30.996Z,27.31
2018-08-19T21:19:01.791Z,27.06
2018-08-19T21:21:30.897Z,27.44
2018-08-19T21:24:00.021Z,27.54
2018-08-19T21:26:29.178Z,27.41
2018-08-19T21:29:03.918Z,27.55
2018-08-19T21:31:34.274Z,27.35
2018-08-19T21:34:03.602Z,27.27
2018-08-19T21:36:32.920Z,26.89
2018-08-19T21:39:02.320Z,27.47
2018-08-19T21:41:48.688Z,27.23
2018-08-19T21:44:18.625Z,26.74
2018-08-19T21:46:47.881Z,26.51
2018-08-19T21:49:17.049Z,26.54
2018-08-19T21:51:46.163Z,26.73
2018-08-19T21:54:16.473Z,26.65
2018-08-19T21:56:45.665Z,26.61
2018-08-19T21:59:30.240Z,26.21
2018-08-19T22:02:00.286Z,26.72
2018-08-19T22:04:30.077Z,26.87
2018-08-19T22:06:59.179Z,26.77
2018-08-19T22:09:37.189Z,26.91
2018-08-19T22:12:07.692Z,25.81
2018-08-19T22:14:36.853Z,25.62
2018-08-19T22:17:09.616Z,25.58
2018-08-19T22:19:39.436Z,25.01
2018-08-19T22:22:08.807Z,25.44
2018-08-19T22:24:38.262Z,25.58
2018-08-19T22:27:16.675Z,25.89
2018-08-19T22:29:45.997Z,26.13
2018-08-19T22:32:15.136Z,25.82
2018-08-19T22:34:44.400Z,26.34
2018-08-19T22:37:13.683Z,26.23
2018-08-19T22:39:42.919Z,26.15
2018-08-19T22:42:12.025Z,25.97
2018-08-19T22:44:41.234Z,25.37
2018-08-19T22:47:10.345Z,25.92
2018-08-19T22:49:39.462Z,25.42
2018-08-19T22:52:21.430Z,25.40
2018-08-19T22:54:54.833Z,25.48
2018-08-19T22:57:24.020Z,25.55
2018-08-19T22:59:53.474Z,26.09
2018-08-19T23:02:22.738Z,25.33
2018-08-19T23:04:51.946Z,25.81
2018-08-19T23:07:21.073Z,25.46
2018-08-19T23:09:50.212Z,25.22
2018-08-19T23:12:19.340Z,25.59
2018-08-19T23:14:59.487Z,26.00
2018-08-19T23:17:28.605Z,25.77
2018-08-19T23:19:57.723Z,25.94
2018-08-19T23:22:26.771Z,25.90
2018-08-19T23:24:55.888Z,25.79
2018-08-19T23:27:25.020Z,25.53
2018-08-19T23:29:54.165Z,25.74
2018-08-19T23:32:23.210Z,25.57
2018-08-19T23:34:52.414Z,25.69
2018-08-19T23:37:21.559Z,25.11
2018-08-19T23:39:50.728Z,25.04
2018-08-19T23:42:19.851Z,25.16
2018-08-19T23:44:49.038Z,25.41
2018-08-19T23:47:18.089Z,25.41
2018-08-19T23:49:47.244Z,25.60
2018-08-19T23:52:16.578Z,25.46
2018-08-19T23:54:45.734Z,25.36
2018-08-19T23:57:15.554Z,25.12
2018-08-19T23:59:46.346Z,25.03
